Time;durP1;ratioP1;P1;durP2;ratioP2;P2;SDS_P1;SDS_P2;PMS_P1;PMS_P2;Temp;Humidity;BMP_temperature;BMP_pressure;BME280_temperature;BME280_humidity;BME280_pressure;Samples;Min_cycle;Max_cycle;Signal;HPM_P1;HPM_P2
2022/12/11 00:01:27;;;;;;;53.17;22.40;;;;;;;-0.24;100.00;101102.09;5069489;28;20040;-69
2022/12/11 00:03:52;;;;;;;61.17;21.42;;;;;;;-0.23;100.00;101095.06;5069368;28;20043;-69
2022/12/11 00:06:20;;;;;;;54.38;23.00;;;;;;;-0.25;100.00;101099.56;5069555;28;20020;-69
2022/12/11 00:08:46;;;;;;;64.15;23.10;;;;;;;-0.26;100.00;101090.06;5069401;28;20028;-69
2022/12/11 00:11:15;;;;;;;54.85;23.63;;;;;;;-0.24;100.00;101090.75;5069480;28;20043;-70
2022/12/11 00:13:41;;;;;;;55.92;21.17;;;;;;;-0.25;100.00;101091.72;5069623;28;20111;-70
2022/12/11 00:16:07;;;;;;;58.00;22.23;;;;;;;-0.24;100.00;101090.75;5073551;28;20048;-69
2022/12/11 00:18:32;;;;;;;60.92;24.20;;;;;;;-0.23;100.00;101090.63;5073397;28;20125;-69
2022/12/11 00:21:02;;;;;;;52.95;23.10;;;;;;;-0.25;100.00;101084.66;5073339;28;20089;-69
2022/12/11 00:23:28;;;;;;;53.53;21.95;;;;;;;-0.24;100.00;101082.88;5073246;28;20060;-69
2022/12/11 00:25:53;;;;;;;58.25;23.15;;;;;;;-0.23;100.00;101088.00;5072420;28;20059;-69
2022/12/11 00:28:19;;;;;;;49.92;20.88;;;;;;;-0.24;100.00;101090.75;5072548;28;20123;-69
2022/12/11 00:30:44;;;;;;;53.28;20.02;;;;;;;-0.25;100.00;101084.66;5072882;28;20028;-69
2022/12/11 00:33:11;;;;;;;50.17;21.42;;;;;;;-0.24;100.00;101091.59;5072407;28;20456;-69
2022/12/11 00:35:38;;;;;;;65.35;25.00;;;;;;;-0.23;100.00;101095.06;5071197;28;20556;-69
2022/12/11 00:38:03;;;;;;;56.72;21.50;;;;;;;-0.25;100.00;101091.72;5072494;28;20029;-69
2022/12/11 00:40:29;;;;;;;59.95;22.65;;;;;;;-0.22;100.00;101102.78;5072189;28;20398;-69
2022/12/11 00:42:54;;;;;;;53.88;18.48;;;;;;;-0.22;100.00;101097.53;5072171;28;20033;-69
2022/12/11 00:45:19;;;;;;;58.40;23.35;;;;;;;-0.19;100.00;101098.25;5071858;28;20057;-69
2022/12/11 00:47:45;;;;;;;61.28;25.40;;;;;;;-0.19;100.00;101095.63;5071953;28;20036;-69
2022/12/11 00:50:11;;;;;;;57.42;23.95;;;;;;;-0.19;100.00;101093.84;5072066;28;20368;-69
2022/12/11 00:52:37;;;;;;;68.57;22.95;;;;;;;-0.18;100.00;101090.28;5072111;28;20058;-69
2022/12/11 00:55:03;;;;;;;47.95;19.15;;;;;;;-0.20;100.00;101083.50;5072030;28;20474;-69
2022/12/11 00:57:28;;;;;;;56.25;25.17;;;;;;;-0.18;100.00;101086.81;5072412;28;20036;-70
2022/12/11 00:59:53;;;;;;;53.88;20.13;;;;;;;-0.17;100.00;101086.69;5072686;28;20028;-69
2022/12/11 01:02:19;;;;;;;51.95;21.92;;;;;;;-0.17;100.00;101080.63;5072428;28;20071;-69
2022/12/11 01:04:44;;;;;;;64.45;24.13;;;;;;;-0.16;100.00;101084.91;5072490;28;20028;-69
2022/12/11 01:07:09;;;;;;;52.75;22.40;;;;;;;-0.18;100.00;101082.41;5072441;28;20029;-69
2022/12/11 01:12:18;;;;;;;50.97;21.40;;;;;;;-0.17;100.00;101078.81;5072596;28;20078;-69
2022/12/11 01:14:44;;;;;;;57.20;19.23;;;;;;;-0.15;100.00;101084.78;5070941;28;20048;-69
2022/12/11 01:17:10;;;;;;;53.90;22.17;;;;;;;-0.15;100.00;101071.69;5072228;28;20108;-69
2022/12/11 01:19:36;;;;;;;51.55;20.20;;;;;;;-0.13;100.00;101085.50;5072335;28;20044;-69
2022/12/11 01:22:01;;;;;;;55.10;19.67;;;;;;;-0.13;100.00;101088.13;5072185;28;20039;-69
2022/12/11 01:24:26;;;;;;;57.45;24.52;;;;;;;-0.13;100.00;101084.66;5072133;28;20032;-66
2022/12/11 01:26:52;;;;;;;48.47;23.63;;;;;;;-0.14;100.00;101085.63;5070687;28;20063;-66
2022/12/11 01:29:17;;;;;;;44.15;17.77;;;;;;;-0.14;100.00;101086.44;5071233;28;20120;-66
2022/12/11 01:31:43;;;;;;;45.08;18.50;;;;;;;-0.13;100.00;101080.25;5071438;28;20025;-66
2022/12/11 01:34:08;;;;;;;51.15;25.48;;;;;;;-0.14;100.00;101081.19;5071356;28;20024;-66
2022/12/11 01:36:33;;;;;;;50.85;25.10;;;;;;;-0.14;100.00;101078.59;5071032;28;20372;-66
2022/12/11 01:38:59;;;;;;;48.33;22.05;;;;;;;-0.11;100.00;101085.38;5071035;28;20069;-66
2022/12/11 01:41:24;;;;;;;45.67;19.65;;;;;;;-0.11;100.00;101088.00;5071028;28;20033;-66
2022/12/11 01:44:05;;;;;;;53.08;21.90;;;;;;;-0.16;100.00;101077.88;5071128;28;20483;-66
2022/12/11 01:46:32;;;;;;;52.50;20.48;;;;;;;-0.10;100.00;101087.88;5071200;28;20028;-66
2022/12/11 01:49:01;;;;;;;49.85;22.75;;;;;;;-0.16;100.00;101072.63;5071056;28;20063;-66
2022/12/11 01:51:30;;;;;;;45.50;19.40;;;;;;;-0.08;100.00;101079.88;5070914;28;20053;-66
2022/12/11 01:54:05;;;;;;;48.80;21.52;;;;;;;-0.09;100.00;101079.03;5071070;28;20507;-66
2022/12/11 01:56:33;;;;;;;48.25;21.85;;;;;;;-0.07;100.00;101074.53;5071175;28;20020;-66
2022/12/11 01:59:05;;;;;;;49.38;20.50;;;;;;;-0.08;100.00;101075.50;5071132;28;20024;-66
2022/12/11 02:01:41;;;;;;;56.30;23.63;;;;;;;-0.09;100.00;101068.56;5071481;28;20025;-66
2022/12/11 02:04:08;;;;;;;53.65;21.33;;;;;;;-0.06;100.00;101062.25;5071341;28;20029;-67
2022/12/11 02:06:38;;;;;;;45.83;21.15;;;;;;;-0.05;100.00;101069.16;5071483;28;20029;-66
2022/12/11 02:09:11;;;;;;;46.78;17.65;;;;;;;-0.06;100.00;101068.31;5071159;28;20020;-66
2022/12/11 02:12:00;;;;;;;49.38;19.42;;;;;;;-0.07;100.00;101063.22;5071079;28;20024;-66
2022/12/11 02:14:44;;;;;;;52.67;22.33;;;;;;;-0.04;100.00;101066.41;5071106;28;20036;-66
2022/12/11 02:17:18;;;;;;;50.03;23.40;;;;;;;-0.03;100.00;101060.22;5071122;28;20028;-66
2022/12/11 02:20:08;;;;;;;52.72;21.30;;;;;;;-0.06;100.00;101054.38;5071081;28;20939;-66
2022/12/11 02:23:10;;;;;;;49.65;20.05;;;;;;;0.00;100.00;101056.53;5070952;28;20032;-66
2022/12/11 02:25:58;;;;;;;48.72;21.27;;;;;;;0.02;100.00;101056.38;5070939;28;20486;-66
2022/12/11 02:28:36;;;;;;;53.28;21.60;;;;;;;0.00;100.00;101056.53;5059620;28;20045;-66
2022/12/11 02:31:09;;;;;;;43.63;21.33;;;;;;;-0.01;100.00;101054.84;5070085;28;20397;-66
2022/12/11 02:33:48;;;;;;;55.10;22.77;;;;;;;-0.03;100.00;101051.50;5070144;28;20032;-66
2022/12/11 02:36:17;;;;;;;45.03;19.35;;;;;;;0.01;100.00;101052.13;5070097;28;20035;-66
2022/12/11 02:38:49;;;;;;;44.08;20.35;;;;;;;-0.01;100.00;101060.91;5070111;28;20051;-66
2022/12/11 02:41:17;;;;;;;43.67;20.42;;;;;;;0.01;100.00;101067.84;5069935;28;20032;-66
2022/12/11 02:43:44;;;;;;;43.45;21.98;;;;;;;0.01;100.00;101052.13;5069784;28;20037;-66
2022/12/11 02:46:12;;;;;;;47.88;20.13;;;;;;;-0.01;100.00;101060.91;5069900;28;20060;-66
2022/12/11 02:48:39;;;;;;;43.10;20.50;;;;;;;-0.01;100.00;101046.97;5069872;28;20024;-66
2022/12/11 02:51:07;;;;;;;40.20;17.98;;;;;;;-0.01;100.00;101055.66;5070012;28;20044;-66
2022/12/11 02:53:36;;;;;;;46.72;19.65;;;;;;;0.01;100.00;101052.94;5069982;28;20095;-66
2022/12/11 02:56:17;;;;;;;44.20;16.98;;;;;;;0.03;100.00;101053.66;5069722;28;20024;-66
2022/12/11 02:58:48;;;;;;;48.70;19.15;;;;;;;0.05;100.00;101040.41;5069986;28;20038;-66
2022/12/11 03:01:14;;;;;;;44.53;19.77;;;;;;;0.07;100.00;101049.00;5069986;28;20050;-66
2022/12/11 03:03:39;;;;;;;44.83;19.33;;;;;;;0.06;100.00;101040.28;5070127;28;20028;-66
2022/12/11 03:06:05;;;;;;;52.38;22.80;;;;;;;0.07;100.00;101044.56;5070193;28;20437;-66
2022/12/11 03:08:31;;;;;;;41.92;17.83;;;;;;;0.07;100.00;101043.75;5070088;28;20050;-66
2022/12/11 03:10:56;;;;;;;46.15;17.38;;;;;;;0.08;100.00;101042.78;5069967;28;20028;-66
2022/12/11 03:13:22;;;;;;;42.22;19.67;;;;;;;0.05;100.00;101032.53;5070097;28;20055;-66
2022/12/11 03:16:02;;;;;;;50.60;19.08;;;;;;;0.09;100.00;101031.34;5070124;28;20070;-67
2022/12/11 03:18:41;;;;;;;39.00;16.05;;;;;;;0.08;100.00;101027.91;5070074;28;20111;-66
2022/12/11 03:21:54;;;;;;;44.80;17.20;;;;;;;0.04;100.00;101020.41;5069783;28;20065;-66
2022/12/11 03:24:30;;;;;;;47.50;20.00;;;;;;;0.09;100.00;101024.31;5032174;28;20041;-66
2022/12/11 03:27:05;;;;;;;42.05;18.75;;;;;;;0.09;100.00;101015.63;5069886;28;20036;-66
2022/12/11 03:29:35;;;;;;;41.75;16.17;;;;;;;0.10;100.00;101019.88;5068913;28;20387;-66
2022/12/11 03:32:07;;;;;;;49.30;20.30;;;;;;;0.11;100.00;101022.41;5068949;28;20107;-66
2022/12/11 03:34:50;;;;;;;36.95;15.30;;;;;;;0.11;100.00;101019.78;5068797;28;20979;-66
2022/12/11 03:37:17;;;;;;;40.90;18.58;;;;;;;0.12;100.00;101017.97;5069020;28;20024;-66
2022/12/11 03:39:47;;;;;;;43.95;20.20;;;;;;;0.13;100.00;101020.50;5069059;28;20062;-66
2022/12/11 03:42:16;;;;;;;37.55;17.70;;;;;;;0.13;100.00;101025.75;5069037;28;20033;-66
2022/12/11 03:44:46;;;;;;;32.13;16.50;;;;;;;0.14;100.00;101026.56;5068375;28;20403;-66
2022/12/11 03:47:16;;;;;;;32.05;17.48;;;;;;;0.15;100.00;101031.66;5068734;28;20039;-66
2022/12/11 03:49:44;;;;;;;37.50;17.60;;;;;;;0.13;100.00;101025.75;5068310;28;20498;-66
2022/12/11 03:52:13;;;;;;;34.08;16.73;;;;;;;0.12;100.00;101025.84;5068756;28;20044;-66
2022/12/11 03:54:40;;;;;;;37.70;13.63;;;;;;;0.11;100.00;101013.72;5069092;28;20093;-66
2022/12/11 03:57:08;;;;;;;29.55;13.07;;;;;;;0.11;100.00;101017.16;5068993;28;20025;-66
2022/12/11 03:59:33;;;;;;;33.45;12.88;;;;;;;0.11;100.00;101021.56;5069495;28;20031;-66
2022/12/11 04:01:59;;;;;;;34.38;14.30;;;;;;;0.09;100.00;101018.25;5068984;28;20135;-66
2022/12/11 04:04:24;;;;;;;29.60;16.55;;;;;;;0.08;100.00;101016.56;5069614;28;20020;-66
2022/12/11 04:06:49;;;;;;;26.77;10.23;;;;;;;0.11;100.00;101021.56;5069396;28;20159;-66
2022/12/11 04:09:15;;;;;;;28.38;11.95;;;;;;;0.09;100.00;101011.19;5069623;28;20085;-66
2022/12/11 04:11:41;;;;;;;28.85;13.27;;;;;;;0.08;100.00;101004.31;5069549;28;20669;-66
2022/12/11 04:16:58;;;;;;;24.98;11.75;;;;;;;0.04;100.00;100999.41;5069227;28;20050;-66
2022/12/11 04:24:51;;;;;;;28.38;11.18;;;;;;;0.08;100.00;101012.16;5069279;28;20466;-66
2022/12/11 04:27:47;;;;;;;26.58;11.50;;;;;;;0.06;100.00;101006.22;5069190;28;20031;-69
2022/12/11 04:30:09;;;;;;;25.35;9.77;;;;;;;0.08;100.00;101012.16;5068511;28;20040;-69
2022/12/11 04:32:34;;;;;;;;;;;;;;;0.12;100.00;101005.69;5068713;28;20028;-69
2022/12/11 04:34:59;;;;;;;23.42;10.15;;;;;;;0.09;100.00;101008.56;5068204;28;20347;-71
2022/12/11 04:37:27;;;;;;;25.70;12.20;;;;;;;0.11;100.00;101005.84;5068297;28;20103;-70
2022/12/11 04:39:52;;;;;;;24.20;9.80;;;;;;;0.07;100.00;101001.78;5068245;28;20036;-70
2022/12/11 04:42:17;;;;;;;21.70;10.05;;;;;;;0.11;100.00;101005.84;5068093;28;20028;-70
2022/12/11 04:44:43;;;;;;;26.45;11.40;;;;;;;0.09;100.00;101000.72;5068037;28;20052;-68
2022/12/11 04:47:08;;;;;;;29.83;13.18;;;;;;;0.13;100.00;101004.75;5068263;28;20036;-69
2022/12/11 04:49:34;;;;;;;24.65;10.57;;;;;;;0.15;100.00;101002.81;5068262;28;20454;-69
2022/12/11 04:51:59;;;;;;;25.38;11.18;;;;;;;0.13;100.00;101010.00;5068210;28;20270;-69
2022/12/11 04:54:24;;;;;;;21.73;9.98;;;;;;;0.13;100.00;101003.91;5068230;28;20153;-69
2022/12/11 04:56:49;;;;;;;23.58;10.45;;;;;;;0.14;100.00;101006.41;5068153;28;20048;-69
2022/12/11 04:59:15;;;;;;;23.55;9.20;;;;;;;0.12;100.00;100997.00;5068362;28;20043;-69
2022/12/11 05:01:40;;;;;;;23.13;8.68;;;;;;;0.14;100.00;100995.91;5070699;28;20033;-69
2022/12/11 05:04:05;;;;;;;25.10;9.43;;;;;;;0.15;100.00;101012.47;5072574;28;20027;-69
2022/12/11 05:06:31;;;;;;;27.80;12.48;;;;;;;0.03;100.00;100992.50;5072388;28;20035;-69
2022/12/11 05:08:56;;;;;;;22.50;10.27;;;;;;;0.15;100.00;101010.69;5072381;28;20090;-69
2022/12/11 05:11:22;;;;;;;23.33;10.75;;;;;;;0.15;100.00;101010.69;5072189;28;20024;-69
2022/12/11 05:13:47;;;;;;;24.38;12.05;;;;;;;0.17;100.00;101007.94;5072394;28;20054;-70
2022/12/11 05:16:15;;;;;;;23.80;10.38;;;;;;;0.17;100.00;101016.66;5072338;28;20025;-70
2022/12/11 05:18:41;;;;;;;23.75;11.98;;;;;;;0.15;100.00;101000.19;5070993;28;20028;-70
2022/12/11 05:21:10;;;;;;;25.40;10.18;;;;;;;0.17;100.00;101000.91;5072298;28;20024;-70
2022/12/11 05:23:36;;;;;;;21.63;9.05;;;;;;;0.18;100.00;100993.88;5072185;28;20028;-70
2022/12/11 05:26:04;;;;;;;19.85;10.40;;;;;;;0.20;100.00;100994.59;5070854;28;20085;-70
2022/12/11 05:28:31;;;;;;;24.00;10.23;;;;;;;0.21;100.00;101001.50;5072136;28;20020;-70
2022/12/11 05:30:59;;;;;;;24.23;10.20;;;;;;;0.21;100.00;100994.47;5072038;28;20536;-69
2022/12/11 05:33:25;;;;;;;25.02;10.70;;;;;;;0.20;100.00;100994.59;5072004;28;20024;-69
2022/12/11 05:35:50;;;;;;;23.00;10.15;;;;;;;0.17;100.00;100982.56;5072012;28;20036;-70
2022/12/11 05:38:16;;;;;;;21.98;8.75;;;;;;;0.23;100.00;100983.84;5071954;28;20101;-70
2022/12/11 05:40:41;;;;;;;24.38;10.75;;;;;;;0.23;100.00;100983.84;5071852;28;20389;-70
2022/12/11 05:43:07;;;;;;;23.95;11.05;;;;;;;0.22;100.00;100979.56;5072096;28;20044;-70
2022/12/11 05:45:32;;;;;;;28.08;13.02;;;;;;;0.22;100.00;100977.75;5071636;28;20059;-70
2022/12/11 05:47:58;;;;;;;23.15;8.95;;;;;;;0.23;100.00;100978.59;5071742;28;20055;-70
2022/12/11 05:50:23;;;;;;;23.17;10.32;;;;;;;0.23;100.00;100981.22;5071804;28;20031;-70
2022/12/11 05:52:48;;;;;;;21.98;9.65;;;;;;;0.22;100.00;100979.56;5071703;28;20055;-70
2022/12/11 05:55:14;;;;;;;25.98;11.63;;;;;;;0.22;100.00;100980.38;5071654;28;20039;-70
2022/12/11 05:57:39;;;;;;;22.70;11.45;;;;;;;0.21;100.00;100978.72;5071641;28;20052;-70
2022/12/11 06:00:05;;;;;;;22.10;8.80;;;;;;;0.20;100.00;100989.34;5071644;28;20032;-70
2022/12/11 06:02:33;;;;;;;26.80;11.45;;;;;;;0.20;100.00;100986.72;5071452;28;20036;-70
2022/12/11 06:04:59;;;;;;;25.48;10.07;;;;;;;0.18;100.00;100986.00;5071487;28;20024;-70
2022/12/11 06:07:24;;;;;;;26.45;11.57;;;;;;;0.20;100.00;101003.28;5071398;28;20033;-70
2022/12/11 06:09:49;;;;;;;24.95;12.02;;;;;;;0.18;100.00;100999.13;5071105;28;20036;-70
2022/12/11 06:12:15;;;;;;;23.10;10.02;;;;;;;0.21;100.00;101001.50;5070993;28;20028;-70
2022/12/11 06:14:40;;;;;;;27.20;11.52;;;;;;;0.17;100.00;101005.31;5071229;28;20039;-70
2022/12/11 06:17:06;;;;;;;24.80;10.65;;;;;;;0.15;100.00;100994.13;5071117;28;20877;-70
2022/12/11 06:19:31;;;;;;;27.65;12.65;;;;;;;0.15;100.00;101002.81;5071143;28;20042;-70
2022/12/11 06:21:57;;;;;;;29.55;13.30;;;;;;;0.12;100.00;100997.81;5071045;28;20430;-69
2022/12/11 06:24:22;;;;;;;29.83;14.63;;;;;;;0.11;100.00;101003.22;5071055;28;20052;-69
2022/12/11 06:26:47;;;;;;;27.98;13.82;;;;;;;0.11;100.00;100995.34;5071054;28;20029;-69
2022/12/11 06:29:13;;;;;;;24.58;12.70;;;;;;;0.13;100.00;100991.66;5071099;28;20103;-69
2022/12/11 06:31:38;;;;;;;23.98;12.07;;;;;;;0.12;100.00;100987.34;5070835;28;20062;-69
2022/12/11 06:34:04;;;;;;;25.90;10.85;;;;;;;0.14;100.00;100992.47;5070824;28;20034;-69
2022/12/11 06:36:29;;;;;;;27.65;13.32;;;;;;;0.13;100.00;100994.28;5070736;28;20042;-69
2022/12/11 06:38:54;;;;;;;29.20;11.75;;;;;;;0.13;100.00;100986.41;5070598;28;20024;-70
2022/12/11 06:41:20;;;;;;;27.38;12.63;;;;;;;0.14;100.00;100989.84;5070733;28;20060;-70
2022/12/11 06:43:45;;;;;;;28.55;12.52;;;;;;;0.11;100.00;100987.47;5070159;28;20123;-70
2022/12/11 06:46:15;;;;;;;22.98;11.35;;;;;;;0.12;100.00;100987.34;5069840;28;20044;-70
2022/12/11 06:48:41;;;;;;;24.30;11.68;;;;;;;0.13;100.00;100975.91;5070016;28;20028;-70
2022/12/11 06:51:10;;;;;;;26.42;10.27;;;;;;;0.12;100.00;100982.09;5068818;28;20032;-70
2022/12/11 06:53:35;;;;;;;23.67;10.50;;;;;;;0.14;100.00;100984.59;5070084;28;20290;-66
2022/12/11 06:56:06;;;;;;;26.75;13.20;;;;;;;0.15;100.00;100978.38;5070079;28;20112;-66
2022/12/11 06:58:33;;;;;;;24.02;10.68;;;;;;;0.16;100.00;100982.69;5069867;28;20048;-66
2022/12/11 07:00:59;;;;;;;25.10;10.65;;;;;;;0.15;100.00;100981.84;5069869;28;20039;-66
2022/12/11 07:03:24;;;;;;;25.38;10.70;;;;;;;0.17;100.00;100973.84;5069389;28;20379;-66
2022/12/11 07:05:49;;;;;;;27.40;10.38;;;;;;;0.15;100.00;100981.00;5070104;28;20028;-66
2022/12/11 07:08:15;;;;;;;26.80;13.95;;;;;;;0.17;100.00;100981.72;5070235;28;20464;-66
2022/12/11 07:10:41;;;;;;;25.20;11.10;;;;;;;0.17;100.00;100979.09;5068620;28;20451;-66
2022/12/11 07:13:06;;;;;;;24.88;11.85;;;;;;;0.12;100.00;100981.28;5070024;28;20550;-66
2022/12/11 07:15:32;;;;;;;23.23;10.52;;;;;;;0.18;100.00;100984.22;5069945;28;20111;-66
2022/12/11 07:17:57;;;;;;;25.35;12.05;;;;;;;0.19;100.00;100987.69;5070040;28;20364;-66
2022/12/11 07:20:22;;;;;;;25.08;12.00;;;;;;;0.18;100.00;100993.88;5069930;28;20040;-66
2022/12/11 07:22:48;;;;;;;26.25;10.10;;;;;;;0.18;100.00;100986.84;5069877;28;20029;-66
2022/12/11 07:25:13;;;;;;;20.65;11.25;;;;;;;0.18;100.00;100994.72;5069101;28;20111;-66
2022/12/11 07:27:40;;;;;;;24.17;11.13;;;;;;;0.20;100.00;100991.97;5069788;28;20027;-66
2022/12/11 07:30:06;;;;;;;21.45;9.10;;;;;;;0.24;100.00;101000.41;5069652;28;20537;-66
2022/12/11 07:32:32;;;;;;;20.75;10.35;;;;;;;0.24;100.00;101003.03;5068746;28;20039;-66
2022/12/11 07:34:57;;;;;;;23.33;10.07;;;;;;;0.23;100.00;101012.69;5068997;28;20021;-66
2022/12/11 07:37:22;;;;;;;25.17;12.13;;;;;;;0.25;100.00;101010.78;5069039;28;20029;-66
2022/12/11 07:39:47;;;;;;;29.35;12.55;;;;;;;0.28;100.00;101014.94;5068711;28;20054;-63
2022/12/11 07:42:14;;;;;;;21.33;9.93;;;;;;;0.26;100.00;101012.44;5068769;28;20079;-66
2022/12/11 07:44:39;;;;;;;23.30;10.68;;;;;;;0.27;100.00;101013.28;5068714;28;21022;-66
2022/12/11 07:47:05;;;;;;;24.20;11.98;;;;;;;0.28;100.00;101010.53;5069040;28;20052;-66
2022/12/11 07:49:30;;;;;;;23.40;11.35;;;;;;;0.29;100.00;101016.59;5069153;28;20040;-66
2022/12/11 07:51:56;;;;;;;23.02;9.02;;;;;;;0.29;100.00;101019.22;5069127;28;20416;-66
2022/12/11 07:54:21;;;;;;;23.45;9.85;;;;;;;0.29;100.00;101014.81;5069184;28;20029;-66
2022/12/11 07:56:47;;;;;;;27.83;10.90;;;;;;;0.29;100.00;101019.22;5069181;28;20115;-66
2022/12/11 07:59:13;;;;;;;22.08;8.75;;;;;;;0.30;100.00;101024.34;5069000;28;20040;-66
2022/12/11 08:01:39;;;;;;;20.85;8.75;;;;;;;0.29;100.00;101025.31;5069208;28;20032;-66
2022/12/11 08:04:06;;;;;;;22.05;10.23;;;;;;;0.27;100.00;101008.03;5069296;28;20441;-66
2022/12/11 08:06:36;;;;;;;25.30;10.75;;;;;;;0.23;100.00;100999.56;5069186;28;20020;-66
2022/12/11 08:09:04;;;;;;;21.55;10.82;;;;;;;0.31;100.00;101012.06;5069523;28;20031;-66
2022/12/11 08:11:30;;;;;;;25.98;13.10;;;;;;;0.33;100.00;101023.25;5069315;28;20056;-66
2022/12/11 08:13:58;;;;;;;22.80;10.40;;;;;;;0.31;100.00;101005.00;5069235;28;20129;-66
2022/12/11 08:16:23;;;;;;;24.40;11.63;;;;;;;0.34;100.00;101010.03;5069049;28;20123;-67
2022/12/11 08:18:48;;;;;;;24.20;10.68;;;;;;;0.37;100.00;101009.78;5069178;28;20131;-67
2022/12/11 08:21:22;;;;;;;23.52;11.27;;;;;;;0.39;100.00;101014.88;5069239;28;20127;-67
2022/12/11 08:23:49;;;;;;;27.98;12.88;;;;;;;0.37;100.00;101004.53;5051018;28;20387;-67
2022/12/11 08:26:22;;;;;;;27.52;12.48;;;;;;;0.41;100.00;101005.94;5069383;28;20506;-67
2022/12/11 08:28:48;;;;;;;23.45;12.35;;;;;;;0.42;100.00;101010.22;5069210;28;20230;-67
2022/12/11 08:31:15;;;;;;;24.42;9.13;;;;;;;0.43;100.00;101009.25;5069247;28;20518;-67
2022/12/11 08:33:41;;;;;;;25.42;11.20;;;;;;;0.47;100.00;101014.25;5068205;28;20025;-67
2022/12/11 08:36:09;;;;;;;30.05;13.90;;;;;;;0.46;100.00;101008.19;5070991;28;20402;-67
2022/12/11 08:38:35;;;;;;;25.73;12.80;;;;;;;0.46;100.00;101007.34;5072457;28;20036;-67
2022/12/11 08:41:28;;;;;;;28.77;12.15;;;;;;;0.47;100.00;101012.44;5071009;28;20399;-66
2022/12/11 08:43:55;;;;;;;31.70;13.80;;;;;;;0.48;100.00;101010.69;5070848;28;20044;-67
2022/12/11 08:46:22;;;;;;;25.73;12.18;;;;;;;0.49;100.00;101010.53;5072176;28;20058;-67
2022/12/11 08:48:48;;;;;;;30.05;12.43;;;;;;;0.50;100.00;101009.59;5072393;28;20029;-67
2022/12/11 08:51:21;;;;;;;30.20;13.95;;;;;;;0.53;100.00;101013.75;5072055;28;20492;-67
2022/12/11 08:53:48;;;;;;;31.45;14.00;;;;;;;0.51;100.00;101007.81;5072198;28;20016;-67
2022/12/11 08:56:16;;;;;;;29.70;14.25;;;;;;;0.54;100.00;101005.75;5072055;28;20128;-67
2022/12/11 08:58:42;;;;;;;28.65;12.30;;;;;;;0.54;100.00;101002.28;5071990;28;20050;-67
2022/12/11 09:01:22;;;;;;;26.70;12.88;;;;;;;0.56;100.00;101000.38;5072344;28;20173;-67
2022/12/11 09:03:49;;;;;;;29.88;13.95;;;;;;;0.55;100.00;101004.81;5072494;28;20054;-67
2022/12/11 09:06:18;;;;;;;25.10;11.90;;;;;;;0.56;100.00;101008.25;5072633;28;20058;-67
2022/12/11 09:08:45;;;;;;;28.90;13.73;;;;;;;0.50;100.00;100998.25;5072496;28;20067;-67
2022/12/11 09:11:14;;;;;;;27.63;12.75;;;;;;;0.57;100.00;101004.66;5072492;28;20032;-67
2022/12/11 09:13:40;;;;;;;30.90;12.95;;;;;;;0.54;100.00;100999.66;5071125;28;20024;-67
2022/12/11 09:16:08;;;;;;;24.70;10.82;;;;;;;0.57;100.00;100996.78;5072394;28;20029;-67
2022/12/11 09:18:35;;;;;;;25.20;11.30;;;;;;;0.58;100.00;100987.97;5072373;28;20488;-67
2022/12/11 09:21:02;;;;;;;25.25;12.05;;;;;;;0.59;100.00;100994.88;5072269;28;20395;-67
2022/12/11 09:23:27;;;;;;;27.48;13.43;;;;;;;0.59;100.00;100985.19;5072156;28;20150;-68
2022/12/11 09:25:53;;;;;;;29.05;13.65;;;;;;;0.55;100.00;100981.19;5072125;28;20123;-67
2022/12/11 09:28:18;;;;;;;23.88;11.30;;;;;;;0.61;100.00;100993.78;5070741;28;20069;-66
2022/12/11 09:30:44;;;;;;;33.15;13.10;;;;;;;0.61;100.00;100998.19;5072039;28;20395;-67
2022/12/11 09:33:09;;;;;;;25.85;12.05;;;;;;;0.61;100.00;100991.16;5072038;28;20048;-67
2022/12/11 09:35:35;;;;;;;24.13;10.75;;;;;;;0.61;100.00;100992.94;5071847;28;20056;-67
2022/12/11 09:38:00;;;;;;;22.45;11.02;;;;;;;0.61;100.00;100995.56;5071039;28;20039;-67
2022/12/11 09:40:25;;;;;;;22.73;11.30;;;;;;;0.63;100.00;100998.91;5071213;28;20048;-67
2022/12/11 09:43:01;;;;;;;26.35;11.70;;;;;;;0.65;100.00;101002.22;5071364;28;20073;-67
2022/12/11 09:45:26;;;;;;;22.17;10.73;;;;;;;0.64;100.00;100995.31;5071209;28;20056;-67
2022/12/11 09:47:55;;;;;;;25.48;12.45;;;;;;;0.64;100.00;100997.94;5070413;28;20475;-67
2022/12/11 09:50:31;;;;;;;26.73;10.88;;;;;;;0.60;100.00;100986.03;5071051;28;20078;-67
2022/12/11 09:53:11;;;;;;;25.33;10.65;;;;;;;0.64;100.00;100988.28;5070851;28;20028;-67
2022/12/11 09:56:05;;;;;;;26.80;12.57;;;;;;;0.67;100.00;100992.44;5071072;28;20474;-67
2022/12/11 09:58:47;;;;;;;22.27;10.98;;;;;;;0.65;100.00;100987.31;5070907;28;20107;-67
2022/12/11 10:01:33;;;;;;;23.38;9.77;;;;;;;0.71;100.00;100988.59;5069377;28;20301;-67
2022/12/11 10:04:09;;;;;;;23.90;12.23;;;;;;;0.73;100.00;100989.28;5071013;28;20946;-67
2022/12/11 10:06:46;;;;;;;27.90;11.35;;;;;;;0.73;100.00;100985.81;5071156;28;20566;-67
2022/12/11 10:09:27;;;;;;;23.30;12.15;;;;;;;0.74;100.00;100983.09;5071195;28;20155;-67
2022/12/11 10:12:12;;;;;;;22.88;10.38;;;;;;;0.76;100.00;100986.41;5071128;28;20039;-67
2022/12/11 10:14:57;;;;;;;24.63;11.52;;;;;;;0.78;100.00;100978.41;5071412;28;20024;-67
2022/12/11 10:17:28;;;;;;;23.80;10.05;;;;;;;0.81;100.00;100983.38;5071238;28;20021;-67
2022/12/11 10:19:56;;;;;;;27.63;12.98;;;;;;;0.82;100.00;100991.13;5071279;28;20486;-67
2022/12/11 10:22:31;;;;;;;27.20;11.65;;;;;;;0.81;100.00;100984.25;5071016;28;20028;-67
2022/12/11 10:25:00;;;;;;;26.50;12.95;;;;;;;0.80;100.00;100986.97;5070947;28;20029;-67
2022/12/11 10:27:34;;;;;;;27.17;11.48;;;;;;;0.80;100.00;100979.94;5064986;28;20024;-66
2022/12/11 10:30:12;;;;;;;31.13;11.35;;;;;;;0.86;100.00;100981.19;5064618;28;20024;-66
2022/12/11 10:33:20;;;;;;;26.25;10.77;;;;;;;0.88;100.00;100985.34;5064989;28;20129;-67
2022/12/11 10:35:54;;;;;;;25.98;13.52;;;;;;;0.90;100.00;100980.00;5061061;28;20033;-67
2022/12/11 10:38:23;;;;;;;26.63;13.77;;;;;;;0.94;100.00;100978.75;5063693;28;20357;-67
2022/12/11 10:40:53;;;;;;;22.13;11.63;;;;;;;0.96;100.00;100981.25;5063783;28;20032;-67
2022/12/11 10:43:19;;;;;;;23.95;11.45;;;;;;;0.92;100.00;100985.09;5064016;28;20383;-67
2022/12/11 10:45:53;;;;;;;26.95;12.05;;;;;;;0.92;100.00;100980.69;5064136;28;20044;-66
2022/12/11 10:48:19;;;;;;;25.10;10.93;;;;;;;0.86;100.00;100970.69;5063632;28;20138;-67
2022/12/11 10:50:56;;;;;;;23.02;10.02;;;;;;;0.85;100.00;100963.78;5064387;28;20380;-66
2022/12/11 10:53:22;;;;;;;27.08;14.55;;;;;;;0.89;100.00;100965.19;5064268;28;20032;-66
2022/12/11 10:55:49;;;;;;;27.92;13.18;;;;;;;0.88;100.00;100968.78;5063759;28;20096;-66
2022/12/11 10:58:21;;;;;;;22.45;11.20;;;;;;;0.90;100.00;100958.16;5062651;28;20032;-66
2022/12/11 11:01:08;;;;;;;23.48;10.85;;;;;;;0.90;100.00;100952.91;5063496;28;20055;-66
2022/12/11 11:03:51;;;;;;;25.83;11.65;;;;;;;0.90;100.00;100955.53;5063991;28;20129;-66
2022/12/11 11:06:18;;;;;;;25.35;12.70;;;;;;;0.94;100.00;100962.16;5063896;28;20111;-66
2022/12/11 11:08:50;;;;;;;29.27;11.80;;;;;;;0.90;100.00;100937.97;5063234;28;20016;-66
2022/12/11 11:11:23;;;;;;;;;;;;;;;1.02;100.00;100959.72;5064622;28;20078;-73
2022/12/11 11:13:49;;;;;;;22.17;9.98;;;;;;;1.00;100.00;100961.66;5063901;28;19917;-72
2022/12/11 11:16:18;;;;;;;32.78;17.23;;;;;;;1.00;100.00;100956.41;5063708;28;20024;-71
2022/12/11 11:18:53;;;;;;;21.00;9.82;;;;;;;1.00;100.00;100953.78;5064141;28;20131;-71
2022/12/11 11:21:23;;;;;;;26.30;11.77;;;;;;;0.98;100.00;100956.53;5063369;28;20428;-71
2022/12/11 11:23:49;;;;;;;28.48;14.45;;;;;;;0.97;100.00;100957.50;5063984;28;20025;-74
2022/12/11 11:26:15;;;;;;;22.35;10.38;;;;;;;0.95;100.00;100955.97;5063552;28;20033;-71
2022/12/11 11:28:47;;;;;;;24.60;11.90;;;;;;;0.96;100.00;100957.63;5063424;28;20708;-76